Time;durP1;ratioP1;P1;durP2;ratioP2;P2;SDS_P1;SDS_P2;PMS_P1;PMS_P2;Temp;Humidity;BMP_temperature;BMP_pressure;BME280_temperature;BME280_humidity;BME280_pressure;Samples;Min_cycle;Max_cycle;Signal;HPM_P1;HPM_P2
2021/05/26 00:01:01;;;;;;;5.73;3.57;;;;;;;;;;5052723;28;20033;-58
2021/05/26 00:03:28;;;;;;;8.57;3.43;;;;;;;;;;5054188;28;20029;-57
2021/05/26 00:05:55;;;;;;;9.83;4.47;;;;;;;;;;5053913;28;20047;-58
2021/05/26 00:08:27;;;;;;;6.17;3.43;;;;;;;;;;5054443;28;20057;-57
2021/05/26 00:10:55;;;;;;;7.30;3.80;;;;;;;;;;5054030;28;20029;-57
2021/05/26 00:13:22;;;;;;;8.57;3.73;;;;;;;;;;5053772;28;20025;-58
2021/05/26 00:15:50;;;;;;;13.37;3.33;;;;;;;;;;5053806;28;20104;-58
2021/05/26 00:18:17;;;;;;;7.40;2.97;;;;;;;;;;5053780;28;20476;-57
2021/05/26 00:20:46;;;;;;;6.77;3.27;;;;;;;;;;5053677;28;20032;-58
2021/05/26 00:23:12;;;;;;;6.30;3.00;;;;;;;;;;5053527;28;20108;-58
2021/05/26 00:25:39;;;;;;;6.87;3.37;;;;;;;;;;5053744;28;20032;-57
2021/05/26 00:28:06;;;;;;;6.17;2.70;;;;;;;;;;5053595;28;20635;-58
2021/05/26 00:30:36;;;;;;;6.27;3.03;;;;;;;;;;5053627;28;20017;-59
2021/05/26 00:33:03;;;;;;;13.23;3.40;;;;;;;;;;5053480;28;20442;-58
2021/05/26 00:35:30;;;;;;;5.23;2.23;;;;;;;;;;5053400;28;20031;-57
2021/05/26 00:37:57;;;;;;;4.23;2.10;;;;;;;;;;5053363;28;20104;-58
2021/05/26 00:40:23;;;;;;;8.40;1.90;;;;;;;;;;5053381;28;20044;-58
2021/05/26 00:42:50;;;;;;;3.97;1.93;;;;;;;;;;5053130;28;20131;-58
2021/05/26 00:45:17;;;;;;;4.00;1.63;;;;;;;;;;5053148;28;20021;-59
2021/05/26 00:47:46;;;;;;;2.87;1.80;;;;;;;;;;5053348;28;20068;-58
2021/05/26 00:50:15;;;;;;;3.30;2.10;;;;;;;;;;5053294;28;20365;-58
2021/05/26 00:52:43;;;;;;;4.27;1.67;;;;;;;;;;5053141;28;20160;-58
2021/05/26 00:55:11;;;;;;;6.30;2.30;;;;;;;;;;5053063;28;20025;-59
2021/05/26 00:57:38;;;;;;;4.20;1.80;;;;;;;;;;5052992;28;20025;-59
2021/05/26 01:00:17;;;;;;;3.63;1.83;;;;;;;;;;5053017;28;20049;-56
2021/05/26 01:02:45;;;;;;;6.47;2.17;;;;;;;;;;5052905;28;20036;-59
2021/05/26 01:05:12;;;;;;;4.60;1.70;;;;;;;;;;5053154;28;20029;-59
2021/05/26 01:07:52;;;;;;;3.97;1.77;;;;;;;;;;5053349;28;20511;-57
2021/05/26 01:10:20;;;;;;;6.70;2.10;;;;;;;;;;5052825;28;20361;-57
2021/05/26 01:12:47;;;;;;;6.10;3.33;;;;;;;;;;5052678;28;20013;-58
2021/05/26 01:15:17;;;;;;;20.77;12.00;;;;;;;;;;5052754;28;20025;-57
2021/05/26 01:17:45;;;;;;;7.10;3.43;;;;;;;;;;5052909;28;20020;-58
2021/05/26 01:20:19;;;;;;;25.67;14.00;;;;;;;;;;5052691;28;20021;-58
2021/05/26 01:22:52;;;;;;;14.67;7.53;;;;;;;;;;5052670;28;20036;-59
2021/05/26 01:25:19;;;;;;;4.93;2.30;;;;;;;;;;5052812;28;20082;-59
2021/05/26 01:27:46;;;;;;;3.97;1.87;;;;;;;;;;5052537;28;20044;-56
2021/05/26 01:30:13;;;;;;;4.07;1.63;;;;;;;;;;5052703;28;20095;-58
2021/05/26 01:32:44;;;;;;;4.77;1.80;;;;;;;;;;5052539;28;20032;-59
2021/05/26 01:35:12;;;;;;;2.73;1.30;;;;;;;;;;5052583;28;20021;-58
2021/05/26 01:37:40;;;;;;;2.67;1.33;;;;;;;;;;5052719;28;20627;-58
2021/05/26 01:40:07;;;;;;;5.57;1.80;;;;;;;;;;5052564;28;20423;-59
2021/05/26 01:42:34;;;;;;;2.70;1.50;;;;;;;;;;5052423;28;20033;-58
2021/05/26 01:45:02;;;;;;;6.63;1.70;;;;;;;;;;5052375;28;20302;-58
2021/05/26 01:47:29;;;;;;;3.90;1.40;;;;;;;;;;5052471;28;20040;-57
2021/05/26 01:49:55;;;;;;;2.77;1.60;;;;;;;;;;5052395;28;20095;-58
2021/05/26 01:52:22;;;;;;;3.57;1.93;;;;;;;;;;5052601;28;20025;-57
2021/05/26 01:54:49;;;;;;;5.87;2.40;;;;;;;;;;5052509;28;20053;-57
2021/05/26 01:57:16;;;;;;;5.70;2.27;;;;;;;;;;5052521;28;20025;-58
2021/05/26 01:59:43;;;;;;;6.30;2.97;;;;;;;;;;5052313;28;20360;-57
2021/05/26 02:02:10;;;;;;;5.33;2.43;;;;;;;;;;5052238;28;20108;-57
2021/05/26 02:04:36;;;;;;;5.57;2.27;;;;;;;;;;5052548;28;20096;-57
2021/05/26 02:07:08;;;;;;;8.07;2.90;;;;;;;;;;5052678;28;20056;-58
2021/05/26 02:09:38;;;;;;;8.07;2.73;;;;;;;;;;5052301;28;20021;-59
2021/05/26 02:12:24;;;;;;;5.00;2.20;;;;;;;;;;5052197;28;20120;-57
2021/05/26 02:14:55;;;;;;;4.83;2.57;;;;;;;;;;5052227;28;20021;-58
2021/05/26 02:17:23;;;;;;;8.80;3.10;;;;;;;;;;5052292;28;20055;-56
2021/05/26 02:19:50;;;;;;;8.40;2.90;;;;;;;;;;5052137;28;20029;-58
2021/05/26 02:22:17;;;;;;;6.73;2.90;;;;;;;;;;5052167;28;20027;-57
2021/05/26 02:24:45;;;;;;;11.00;4.33;;;;;;;;;;5054671;28;20028;-57
2021/05/26 02:27:13;;;;;;;14.93;6.30;;;;;;;;;;5055857;28;20452;-57
2021/05/26 02:29:40;;;;;;;12.63;5.03;;;;;;;;;;5055718;28;20025;-57
2021/05/26 02:32:07;;;;;;;16.07;5.53;;;;;;;;;;5056251;28;20028;-58
2021/05/26 02:34:34;;;;;;;13.17;5.30;;;;;;;;;;5055735;28;20515;-59
2021/05/26 02:37:01;;;;;;;10.43;4.87;;;;;;;;;;5056096;28;20025;-57
2021/05/26 02:39:28;;;;;;;8.60;4.93;;;;;;;;;;5055430;28;20028;-59
2021/05/26 02:41:54;;;;;;;9.97;4.20;;;;;;;;;;5055223;28;20028;-57
2021/05/26 02:44:21;;;;;;;8.40;3.93;;;;;;;;;;5055346;28;20479;-58
2021/05/26 02:46:48;;;;;;;11.97;4.20;;;;;;;;;;5055192;28;20458;-58
2021/05/26 02:49:15;;;;;;;9.00;3.53;;;;;;;;;;5055530;28;20017;-58
2021/05/26 02:51:43;;;;;;;7.67;3.47;;;;;;;;;;5055236;28;20082;-58
2021/05/26 02:54:10;;;;;;;8.10;3.80;;;;;;;;;;5055465;28;20025;-58
2021/05/26 02:56:37;;;;;;;7.70;3.60;;;;;;;;;;5055124;28;20029;-58
2021/05/26 02:59:07;;;;;;;9.93;3.87;;;;;;;;;;5055297;28;20508;-58
2021/05/26 03:01:34;;;;;;;7.57;3.10;;;;;;;;;;5055100;28;20029;-58
2021/05/26 03:04:01;;;;;;;6.00;3.17;;;;;;;;;;5055259;28;20021;-57
2021/05/26 03:06:29;;;;;;;4.60;2.97;;;;;;;;;;5054960;28;20078;-57
2021/05/26 03:08:56;;;;;;;6.07;2.70;;;;;;;;;;5038081;28;20053;-57
2021/05/26 03:11:22;;;;;;;7.87;3.57;;;;;;;;;;5054503;28;20025;-59
2021/05/26 03:13:49;;;;;;;5.47;2.90;;;;;;;;;;5054871;28;20438;-57
2021/05/26 03:16:16;;;;;;;7.13;2.97;;;;;;;;;;5054721;28;20037;-58
2021/05/26 03:18:45;;;;;;;8.37;2.60;;;;;;;;;;5054882;28;20036;-58
2021/05/26 03:21:12;;;;;;;5.87;2.67;;;;;;;;;;5054710;28;20036;-58
2021/05/26 03:23:41;;;;;;;6.10;2.80;;;;;;;;;;5054346;28;20037;-58
2021/05/26 03:26:08;;;;;;;6.37;2.97;;;;;;;;;;5054519;28;20029;-58
2021/05/26 03:28:35;;;;;;;9.43;2.93;;;;;;;;;;5054850;28;20025;-58
2021/05/26 03:31:02;;;;;;;7.77;2.67;;;;;;;;;;5054577;28;20028;-58
2021/05/26 03:33:30;;;;;;;6.93;2.63;;;;;;;;;;5054599;28;20100;-58
2021/05/26 03:35:57;;;;;;;8.70;2.47;;;;;;;;;;5053160;28;20025;-58
2021/05/26 03:38:23;;;;;;;5.63;2.77;;;;;;;;;;5055137;28;20431;-57
2021/05/26 03:40:50;;;;;;;4.40;2.30;;;;;;;;;;5054244;28;20028;-58
2021/05/26 03:43:17;;;;;;;4.40;2.30;;;;;;;;;;5054348;28;20041;-58
2021/05/26 03:45:44;;;;;;;7.93;3.60;;;;;;;;;;5053432;28;20472;-58
2021/05/26 03:48:11;;;;;;;8.63;3.83;;;;;;;;;;5053278;28;20442;-58
2021/05/26 03:50:38;;;;;;;8.60;3.73;;;;;;;;;;5054181;28;20468;-58
2021/05/26 03:53:05;;;;;;;10.47;3.57;;;;;;;;;;5054097;28;20044;-58
2021/05/26 03:55:32;;;;;;;6.83;3.60;;;;;;;;;;5054356;28;20031;-58
2021/05/26 03:57:58;;;;;;;10.23;3.97;;;;;;;;;;5054025;28;20142;-58
2021/05/26 04:00:25;;;;;;;10.93;4.23;;;;;;;;;;5054168;28;20495;-58
2021/05/26 04:02:52;;;;;;;10.87;3.73;;;;;;;;;;5054132;28;20029;-58
2021/05/26 04:05:19;;;;;;;7.00;3.63;;;;;;;;;;5053870;28;20032;-58
2021/05/26 04:07:46;;;;;;;5.97;3.10;;;;;;;;;;5054161;28;20381;-58
2021/05/26 04:10:13;;;;;;;5.60;3.40;;;;;;;;;;5054025;28;20025;-58
2021/05/26 04:12:39;;;;;;;7.10;3.40;;;;;;;;;;5053802;28;20104;-58
2021/05/26 04:15:07;;;;;;;5.50;2.80;;;;;;;;;;5035581;28;20032;-58
2021/05/26 04:17:34;;;;;;;5.60;2.90;;;;;;;;;;5053871;28;20028;-58
2021/05/26 04:20:05;;;;;;;10.70;3.27;;;;;;;;;;5053715;28;20028;-58
2021/05/26 04:22:32;;;;;;;12.43;2.97;;;;;;;;;;5053554;28;20043;-58
2021/05/26 04:24:59;;;;;;;7.63;3.63;;;;;;;;;;5053643;28;20025;-58
2021/05/26 04:27:26;;;;;;;6.07;3.03;;;;;;;;;;5035551;28;20043;-58
2021/05/26 04:29:53;;;;;;;5.20;3.10;;;;;;;;;;5053705;28;20021;-58
2021/05/26 04:32:20;;;;;;;6.77;3.20;;;;;;;;;;5053568;28;20040;-58
2021/05/26 04:34:46;;;;;;;7.70;3.40;;;;;;;;;;5053506;28;20036;-58
2021/05/26 04:37:16;;;;;;;8.77;3.30;;;;;;;;;;5053476;28;20210;-59
2021/05/26 04:39:43;;;;;;;10.73;3.07;;;;;;;;;;5053428;28;20487;-58
2021/05/26 04:42:10;;;;;;;11.57;3.87;;;;;;;;;;5053337;28;20036;-58
2021/05/26 04:44:36;;;;;;;11.53;4.77;;;;;;;;;;5053103;28;20471;-58
2021/05/26 04:47:04;;;;;;;12.03;4.47;;;;;;;;;;5052830;28;20039;-58
2021/05/26 04:49:30;;;;;;;9.70;4.10;;;;;;;;;;5053303;28;20044;-59
2021/05/26 04:51:57;;;;;;;7.43;3.30;;;;;;;;;;5053103;28;20423;-57
2021/05/26 04:54:24;;;;;;;7.80;3.40;;;;;;;;;;5053094;28;20024;-58
2021/05/26 04:56:51;;;;;;;18.47;4.03;;;;;;;;;;5052868;28;20025;-58
2021/05/26 04:59:18;;;;;;;8.80;3.70;;;;;;;;;;5052933;28;20025;-58
2021/05/26 05:01:44;;;;;;;6.17;2.70;;;;;;;;;;5053077;28;20024;-58
2021/05/26 05:04:11;;;;;;;7.43;3.13;;;;;;;;;;5035270;28;20025;-58
2021/05/26 05:06:38;;;;;;;5.97;2.73;;;;;;;;;;5052909;28;20094;-58
2021/05/26 05:09:07;;;;;;;7.80;2.63;;;;;;;;;;5053452;28;20060;-58
2021/05/26 05:11:33;;;;;;;7.37;2.17;;;;;;;;;;5052681;28;20086;-58
2021/05/26 05:14:00;;;;;;;8.57;2.77;;;;;;;;;;5052787;28;20029;-58
2021/05/26 05:16:27;;;;;;;8.53;3.10;;;;;;;;;;5052644;28;20025;-58
2021/05/26 05:18:54;;;;;;;4.50;2.70;;;;;;;;;;5052713;28;20032;-58
2021/05/26 05:21:21;;;;;;;4.97;2.43;;;;;;;;;;5052505;28;20052;-58
2021/05/26 05:23:48;;;;;;;7.87;3.47;;;;;;;;;;5052610;28;20435;-58
2021/05/26 05:26:15;;;;;;;10.33;3.40;;;;;;;;;;5052393;28;20047;-58
2021/05/26 05:28:42;;;;;;;4.33;2.13;;;;;;;;;;5052719;28;20021;-58
2021/05/26 05:31:09;;;;;;;7.27;2.90;;;;;;;;;;5052647;28;20017;-58
2021/05/26 05:33:36;;;;;;;6.53;2.53;;;;;;;;;;5052716;28;20021;-58
2021/05/26 05:36:03;;;;;;;8.07;2.97;;;;;;;;;;5052564;28;20108;-58
2021/05/26 05:38:30;;;;;;;8.40;2.90;;;;;;;;;;5052450;28;20029;-58
2021/05/26 05:40:56;;;;;;;8.73;2.50;;;;;;;;;;5052473;28;20037;-58
2021/05/26 05:43:23;;;;;;;5.70;2.83;;;;;;;;;;5052526;28;20147;-58
2021/05/26 05:45:50;;;;;;;6.70;2.83;;;;;;;;;;5052528;28;20022;-58
2021/05/26 05:48:17;;;;;;;13.93;4.50;;;;;;;;;;5052369;28;20044;-58
2021/05/26 05:50:43;;;;;;;12.30;3.40;;;;;;;;;;5052729;28;20041;-58
2021/05/26 05:53:10;;;;;;;6.53;3.60;;;;;;;;;;5052518;28;20021;-58
2021/05/26 05:55:37;;;;;;;7.33;3.33;;;;;;;;;;5052448;28;20021;-58
2021/05/26 05:58:04;;;;;;;10.27;3.20;;;;;;;;;;5052261;28;20438;-58
2021/05/26 06:00:34;;;;;;;7.30;3.23;;;;;;;;;;5056155;28;20021;-58
2021/05/26 06:03:01;;;;;;;15.80;3.90;;;;;;;;;;5056374;28;20048;-58
2021/05/26 06:05:28;;;;;;;24.40;4.30;;;;;;;;;;5056378;28;20033;-59
2021/05/26 06:07:54;;;;;;;7.33;3.60;;;;;;;;;;5056637;28;20180;-59
2021/05/26 06:10:21;;;;;;;14.03;3.20;;;;;;;;;;5056284;28;20025;-58
2021/05/26 06:12:49;;;;;;;9.97;3.07;;;;;;;;;;5055981;28;20488;-58
2021/05/26 06:15:17;;;;;;;8.87;3.07;;;;;;;;;;5056070;28;20021;-59
2021/05/26 06:17:43;;;;;;;6.33;2.70;;;;;;;;;;5055978;28;20082;-59
2021/05/26 06:20:10;;;;;;;4.93;2.73;;;;;;;;;;5055885;28;20025;-59
2021/05/26 06:22:37;;;;;;;7.63;2.87;;;;;;;;;;5055793;28;20028;-59
2021/05/26 06:25:04;;;;;;;8.80;3.10;;;;;;;;;;5055816;28;20353;-58
2021/05/26 06:27:31;;;;;;;10.50;3.23;;;;;;;;;;5055683;28;20033;-59
2021/05/26 06:29:58;;;;;;;5.70;2.73;;;;;;;;;;5055882;28;20032;-59
2021/05/26 06:32:24;;;;;;;8.80;3.27;;;;;;;;;;5055658;28;20036;-58
2021/05/26 06:34:52;;;;;;;9.77;3.30;;;;;;;;;;5055823;28;20025;-58
2021/05/26 06:37:18;;;;;;;5.33;2.90;;;;;;;;;;5055756;28;20029;-58
2021/05/26 06:39:45;;;;;;;6.57;2.50;;;;;;;;;;5055584;28;20550;-58
2021/05/26 06:42:12;;;;;;;6.07;2.70;;;;;;;;;;5055642;28;20031;-58
2021/05/26 06:44:39;;;;;;;5.43;2.30;;;;;;;;;;5055419;28;20028;-58
2021/05/26 06:47:06;;;;;;;4.90;2.27;;;;;;;;;;5055418;28;20065;-58
2021/05/26 06:49:32;;;;;;;8.47;2.23;;;;;;;;;;5055312;28;20029;-58
2021/05/26 06:51:59;;;;;;;6.93;2.40;;;;;;;;;;5055324;28;20025;-58
2021/05/26 06:54:26;;;;;;;5.33;2.47;;;;;;;;;;5055225;28;20025;-58
2021/05/26 06:56:53;;;;;;;6.27;2.37;;;;;;;;;;5054956;28;20029;-59
2021/05/26 06:59:21;;;;;;;4.83;2.10;;;;;;;;;;5055067;28;20452;-59
2021/05/26 07:01:48;;;;;;;4.13;2.13;;;;;;;;;;5055061;28;20550;-58
2021/05/26 07:04:15;;;;;;;3.90;2.40;;;;;;;;;;5055176;28;20025;-58
2021/05/26 07:06:41;;;;;;;4.50;2.50;;;;;;;;;;5054961;28;20049;-58
2021/05/26 07:09:08;;;;;;;6.37;2.27;;;;;;;;;;5055353;28;20045;-59
2021/05/26 07:11:35;;;;;;;3.77;2.60;;;;;;;;;;5054883;28;20085;-58
2021/05/26 07:14:02;;;;;;;4.10;1.87;;;;;;;;;;5054889;28;20020;-58
2021/05/26 07:16:28;;;;;;;4.73;2.60;;;;;;;;;;5054942;28;20025;-58
2021/05/26 07:18:59;;;;;;;8.40;2.60;;;;;;;;;;5054911;28;20082;-58
2021/05/26 07:21:26;;;;;;;18.60;2.77;;;;;;;;;;5054641;28;20061;-56
2021/05/26 07:23:56;;;;;;;6.37;2.57;;;;;;;;;;5054683;28;20025;-57
2021/05/26 07:26:23;;;;;;;11.50;3.10;;;;;;;;;;5054632;28;20060;-58
2021/05/26 07:28:50;;;;;;;4.17;2.43;;;;;;;;;;5054690;28;20104;-57
2021/05/26 07:31:17;;;;;;;9.80;3.73;;;;;;;;;;5054494;28;20025;-57
2021/05/26 07:33:45;;;;;;;6.13;3.10;;;;;;;;;;5054714;28;20025;-57
2021/05/26 07:36:12;;;;;;;4.70;2.30;;;;;;;;;;5054672;28;20029;-57
2021/05/26 07:38:40;;;;;;;3.17;1.73;;;;;;;;;;5054349;28;20048;-57
2021/05/26 07:41:07;;;;;;;2.47;1.63;;;;;;;;;;5054590;28;20057;-58
2021/05/26 07:43:34;;;;;;;4.53;2.00;;;;;;;;;;5054482;28;20191;-57
2021/05/26 07:46:01;;;;;;;5.43;2.20;;;;;;;;;;5054175;28;20032;-58
2021/05/26 07:48:28;;;;;;;3.20;1.63;;;;;;;;;;5054106;28;20044;-57
2021/05/26 07:50:55;;;;;;;3.67;2.17;;;;;;;;;;5054128;28;20078;-58
2021/05/26 07:53:22;;;;;;;3.87;2.23;;;;;;;;;;5054169;28;20353;-58
2021/05/26 07:55:48;;;;;;;3.13;1.90;;;;;;;;;;5053937;28;20024;-58
2021/05/26 07:58:15;;;;;;;5.00;2.90;;;;;;;;;;5054363;28;20032;-58
2021/05/26 08:00:42;;;;;;;4.53;2.00;;;;;;;;;;5054039;28;20094;-59
2021/05/26 08:03:09;;;;;;;3.40;1.90;;;;;;;;;;5054094;28;20036;-57
2021/05/26 08:05:35;;;;;;;6.27;2.43;;;;;;;;;;5054075;28;20013;-57
2021/05/26 08:08:02;;;;;;;5.50;2.10;;;;;;;;;;5054259;28;20080;-57
2021/05/26 08:10:29;;;;;;;5.70;2.07;;;;;;;;;;5053782;28;20086;-58
2021/05/26 08:12:56;;;;;;;3.20;1.77;;;;;;;;;;5053695;28;20455;-56
2021/05/26 08:15:23;;;;;;;3.13;1.53;;;;;;;;;;5053873;28;20091;-57
2021/05/26 08:17:50;;;;;;;4.70;1.40;;;;;;;;;;5053649;28;20029;-58
2021/05/26 08:20:16;;;;;;;4.03;1.20;;;;;;;;;;5053607;28;20043;-58
2021/05/26 08:22:43;;;;;;;2.33;1.07;;;;;;;;;;5053027;28;20036;-58
2021/05/26 08:25:10;;;;;;;5.33;1.10;;;;;;;;;;5053679;28;20075;-57
2021/05/26 08:27:37;;;;;;;1.63;1.17;;;;;;;;;;5053341;28;20483;-58
2021/05/26 08:30:05;;;;;;;1.50;1.00;;;;;;;;;;5053564;28;20028;-57
2021/05/26 08:32:32;;;;;;;6.63;1.30;;;;;;;;;;5053454;28;20017;-58
2021/05/26 08:34:59;;;;;;;1.50;1.10;;;;;;;;;;5053361;28;20086;-58
2021/05/26 08:37:39;;;;;;;2.50;0.90;;;;;;;;;;5053283;28;20032;-58
2021/05/26 08:40:06;;;;;;;2.43;0.90;;;;;;;;;;5053411;28;20033;-58
2021/05/26 08:42:33;;;;;;;2.10;1.00;;;;;;;;;;5053118;28;20051;-58
2021/05/26 08:45:00;;;;;;;1.40;0.70;;;;;;;;;;5053232;28;20029;-57
2021/05/26 08:47:27;;;;;;;1.27;0.70;;;;;;;;;;5053170;28;20040;-57
2021/05/26 08:49:55;;;;;;;1.30;0.70;;;;;;;;;;5053026;28;20021;-58
2021/05/26 08:52:21;;;;;;;1.13;0.77;;;;;;;;;;5053146;28;20104;-58
2021/05/26 08:54:48;;;;;;;1.43;0.60;;;;;;;;;;5052962;28;20017;-58
2021/05/26 08:57:15;;;;;;;1.70;0.90;;;;;;;;;;5052938;28;20102;-57
2021/05/26 08:59:43;;;;;;;1.80;1.10;;;;;;;;;;5053001;28;20028;-58
2021/05/26 09:02:11;;;;;;;1.33;1.07;;;;;;;;;;5035039;28;20538;-58
2021/05/26 09:04:38;;;;;;;1.70;0.87;;;;;;;;;;5035176;28;20048;-57
2021/05/26 09:07:17;;;;;;;2.40;1.40;;;;;;;;;;5052951;28;20032;-57
2021/05/26 09:09:51;;;;;;;3.70;0.83;;;;;;;;;;5053515;28;20559;-58
2021/05/26 09:12:28;;;;;;;1.50;1.10;;;;;;;;;;5053086;28;20027;-57
2021/05/26 09:14:56;;;;;;;1.77;0.90;;;;;;;;;;5053108;28;20266;-58
2021/05/26 09:17:23;;;;;;;2.30;1.10;;;;;;;;;;5034894;28;20021;-58
2021/05/26 09:19:49;;;;;;;3.13;1.30;;;;;;;;;;5052646;28;20119;-58
2021/05/26 09:22:23;;;;;;;4.03;2.53;;;;;;;;;;5052612;28;20387;-58
2021/05/26 09:24:49;;;;;;;1.53;1.00;;;;;;;;;;5052630;28;20037;-58
2021/05/26 09:27:16;;;;;;;1.77;0.97;;;;;;;;;;5052561;28;20036;-57
2021/05/26 09:29:47;;;;;;;1.10;0.80;;;;;;;;;;5052600;28;20020;-58
2021/05/26 09:32:15;;;;;;;2.43;1.10;;;;;;;;;;5052651;28;20028;-57
2021/05/26 09:34:43;;;;;;;4.53;2.17;;;;;;;;;;5052634;28;20056;-58
2021/05/26 09:37:14;;;;;;;3.37;1.33;;;;;;;;;;5052724;28;20096;-58
2021/05/26 09:39:46;;;;;;;5.13;1.40;;;;;;;;;;5052578;28;20104;-58
2021/05/26 09:42:32;;;;;;;4.87;2.20;;;;;;;;;;5052539;28;20104;-58
2021/05/26 09:45:05;;;;;;;4.80;2.30;;;;;;;;;;5052492;28;20031;-58
2021/05/26 09:47:35;;;;;;;10.00;2.50;;;;;;;;;;5052424;28;20442;-58
2021/05/26 09:50:34;;;;;;;6.40;3.00;;;;;;;;;;5052384;28;20116;-57
2021/05/26 09:53:14;;;;;;;5.23;2.63;;;;;;;;;;4998343;28;20068;-57
2021/05/26 09:55:42;;;;;;;5.53;2.90;;;;;;;;;;5052501;28;20025;-57
2021/05/26 09:58:13;;;;;;;5.33;2.43;;;;;;;;;;5052403;28;20021;-58
2021/05/26 10:00:41;;;;;;;3.60;2.20;;;;;;;;;;5052482;28;20112;-57
2021/05/26 10:03:08;;;;;;;4.43;2.33;;;;;;;;;;5052553;28;20383;-58
2021/05/26 10:05:35;;;;;;;4.87;2.53;;;;;;;;;;5052444;28;20037;-58
2021/05/26 10:08:04;;;;;;;5.70;3.20;;;;;;;;;;5052796;28;20084;-58
2021/05/26 10:10:32;;;;;;;8.17;3.20;;;;;;;;;;5052162;28;20069;-58
2021/05/26 10:13:04;;;;;;;6.37;3.17;;;;;;;;;;5052271;28;20021;-57
2021/05/26 10:15:31;;;;;;;5.30;2.20;;;;;;;;;;5052203;28;20021;-58
2021/05/26 10:17:59;;;;;;;5.57;2.40;;;;;;;;;;5052075;28;20411;-57
2021/05/26 10:20:30;;;;;;;5.63;2.07;;;;;;;;;;5052043;28;20017;-58
2021/05/26 10:23:01;;;;;;;6.93;3.23;;;;;;;;;;5052048;28;20033;-58
2021/05/26 10:25:28;;;;;;;7.17;2.73;;;;;;;;;;5034233;28;20041;-58
2021/05/26 10:27:59;;;;;;;7.27;3.33;;;;;;;;;;5051902;28;20029;-57
2021/05/26 10:30:28;;;;;;;7.53;2.97;;;;;;;;;;5052072;28;20021;-58
2021/05/26 10:32:56;;;;;;;9.50;3.13;;;;;;;;;;5052161;28;20032;-58
2021/05/26 10:35:24;;;;;;;6.10;2.43;;;;;;;;;;5052002;28;20024;-57
2021/05/26 10:37:59;;;;;;;4.83;1.93;;;;;;;;;;5052105;28;20100;-58
2021/05/26 10:40:37;;;;;;;10.43;3.85;;;;;;;;;;5051865;28;20467;-57
2021/05/26 10:43:16;;;;;;;6.83;2.20;;;;;;;;;;5052108;28;20021;-57
2021/05/26 10:45:44;;;;;;;4.60;1.87;;;;;;;;;;5054267;28;20040;-58
2021/05/26 10:48:11;;;;;;;8.70;2.80;;;;;;;;;;5055377;28;20437;-58
2021/05/26 10:51:00;;;;;;;5.80;1.93;;;;;;;;;;5055480;28;20048;-58
2021/05/26 10:53:36;;;;;;;4.73;2.60;;;;;;;;;;5055335;28;20082;-58
2021/05/26 10:56:03;;;;;;;5.00;2.10;;;;;;;;;;5055434;28;20024;-58
2021/05/26 10:58:34;;;;;;;7.23;2.50;;;;;;;;;;5055312;28;20056;-58
2021/05/26 11:01:04;;;;;;;4.90;2.37;;;;;;;;;;5054098;28;20116;-58
2021/05/26 11:03:33;;;;;;;7.03;1.73;;;;;;;;;;5055139;28;20059;-58
2021/05/26 11:06:10;;;;;;;6.77;2.57;;;;;;;;;;5055135;28;20376;-58
2021/05/26 11:11:25;;;;;;;10.27;2.90;;;;;;;;;;5055127;28;20063;-58
2021/05/26 11:14:19;;;;;;;10.73;3.00;;;;;;;;;;5054964;28;20033;-58
2021/05/26 11:16:46;;;;;;;7.13;2.07;;;;;;;;;;5037196;28;20037;-58
2021/05/26 11:19:14;;;;;;;3.00;1.40;;;;;;;;;;5054997;28;20092;-58
2021/05/26 11:21:41;;;;;;;6.70;3.00;;;;;;;;;;5054920;28;20025;-58
2021/05/26 11:24:09;;;;;;;9.37;3.30;;;;;;;;;;5037154;28;20028;-58
2021/05/26 11:26:37;;;;;;;5.33;2.23;;;;;;;;;;5054782;28;20036;-58
2021/05/26 11:29:04;;;;;;;4.23;1.53;;;;;;;;;;5055019;28;20040;-57
2021/05/26 11:31:31;;;;;;;4.03;1.90;;;;;;;;;;5054615;28;20033;-58
2021/05/26 11:33:59;;;;;;;6.90;1.77;;;;;;;;;;5054693;28;20511;-57
2021/05/26 11:36:41;;;;;;;10.20;1.63;;;;;;;;;;5053621;28;20060;-58
2021/05/26 11:39:26;;;;;;;4.47;1.57;;;;;;;;;;5054558;28;20037;-58
2021/05/26 11:41:53;;;;;;;2.00;1.00;;;;;;;;;;5054574;28;20383;-57
2021/05/26 11:44:20;;;;;;;3.30;1.50;;;;;;;;;;5054454;28;20157;-57
2021/05/26 11:46:47;;;;;;;2.40;1.30;;;;;;;;;;5054340;28;20379;-58
2021/05/26 11:49:14;;;;;;;5.47;1.47;;;;;;;;;;5054382;28;20112;-58
2021/05/26 11:51:41;;;;;;;9.13;2.20;;;;;;;;;;5054179;28;20380;-58
2021/05/26 11:54:09;;;;;;;4.37;1.93;;;;;;;;;;5054235;28;20032;-58
2021/05/26 11:56:35;;;;;;;9.10;2.40;;;;;;;;;;5053286;28;20029;-58
2021/05/26 11:59:02;;;;;;;5.37;2.10;;;;;;;;;;5054075;28;20036;-58
2021/05/26 12:01:34;;;;;;;8.60;2.60;;;;;;;;;;5053969;28;20395;-57
2021/05/26 12:04:01;;;;;;;5.10;2.20;;;;;;;;;;5036162;28;20471;-58
2021/05/26 12:06:28;;;;;;;6.13;3.10;;;;;;;;;;5036056;28;20032;-58
2021/05/26 12:08:55;;;;;;;5.77;2.27;;;;;;;;;;5054651;28;20087;-58
2021/05/26 12:11:22;;;;;;;4.83;2.47;;;;;;;;;;5053993;28;20029;-58
2021/05/26 12:13:50;;;;;;;6.00;2.57;;;;;;;;;;5053835;28;20029;-57
2021/05/26 12:16:18;;;;;;;7.37;2.60;;;;;;;;;;5053774;28;20040;-58
2021/05/26 12:18:59;;;;;;;5.67;2.60;;;;;;;;;;5053860;28;20091;-57
2021/05/26 12:21:37;;;;;;;4.53;2.50;;;;;;;;;;5053700;28;20056;-57
2021/05/26 12:24:19;;;;;;;6.83;2.83;;;;;;;;;;5053559;28;20028;-56
2021/05/26 12:26:46;;;;;;;7.90;3.13;;;;;;;;;;5053638;28;20086;-57
2021/05/26 12:29:27;;;;;;;7.53;3.10;;;;;;;;;;5053543;28;20032;-56
2021/05/26 12:32:03;;;;;;;6.70;2.70;;;;;;;;;;5053550;28;20099;-57
2021/05/26 12:34:31;;;;;;;10.70;2.87;;;;;;;;;;5052167;28;20401;-56
2021/05/26 12:37:13;;;;;;;6.10;2.83;;;;;;;;;;5035643;28;20029;-56
2021/05/26 12:39:44;;;;;;;8.00;3.53;;;;;;;;;;5051895;28;20037;-57
2021/05/26 12:42:13;;;;;;;18.17;9.23;;;;;;;;;;5053352;28;20017;-58
2021/05/26 12:44:52;;;;;;;17.17;8.27;;;;;;;;;;5053135;28;20025;-57
2021/05/26 12:47:24;;;;;;;15.07;6.93;;;;;;;;;;5053190;28;20029;-58
2021/05/26 12:49:52;;;;;;;7.60;3.87;;;;;;;;;;5053074;28;20014;-58
2021/05/26 12:53:01;;;;;;;7.07;3.33;;;;;;;;;;5053315;28;20029;-58
2021/05/26 12:55:42;;;;;;;12.03;6.73;;;;;;;;;;5053435;28;20083;-58
2021/05/26 12:58:15;;;;;;;8.73;4.40;;;;;;;;;;5052919;28;20032;-58
2021/05/26 13:00:48;;;;;;;4.03;2.50;;;;;;;;;;5052490;28;20095;-58
2021/05/26 13:03:22;;;;;;;4.30;2.50;;;;;;;;;;5052471;28;20029;-58
2021/05/26 13:05:50;;;;;;;4.73;2.90;;;;;;;;;;5052799;28;20438;-58
2021/05/26 13:08:20;;;;;;;6.50;2.67;;;;;;;;;;5053017;28;20032;-59
2021/05/26 13:10:51;;;;;;;3.57;2.27;;;;;;;;;;5052844;28;20021;-58
2021/05/26 13:13:26;;;;;;;8.23;2.73;;;;;;;;;;5052742;28;20033;-58
2021/05/26 13:16:10;;;;;;;4.80;2.50;;;;;;;;;;5051075;28;20037;-58
2021/05/26 13:18:50;;;;;;;6.03;2.80;;;;;;;;;;5052769;28;20036;-58
2021/05/26 13:21:17;;;;;;;6.00;2.53;;;;;;;;;;5052026;28;20083;-58
2021/05/26 13:23:44;;;;;;;7.27;2.90;;;;;;;;;;5052694;28;20100;-58
2021/05/26 13:26:12;;;;;;;5.27;2.63;;;;;;;;;;5052683;28;20025;-58
2021/05/26 13:28:39;;;;;;;5.63;3.13;;;;;;;;;;5052490;28;20495;-58
2021/05/26 13:31:06;;;;;;;5.13;2.60;;;;;;;;;;5034520;28;20627;-58
2021/05/26 13:33:35;;;;;;;6.70;2.80;;;;;;;;;;5052612;28;20257;-58
2021/05/26 13:36:08;;;;;;;5.90;3.20;;;;;;;;;;5052525;28;20028;-58
2021/05/26 13:38:39;;;;;;;7.07;3.23;;;;;;;;;;5052396;28;20021;-58
2021/05/26 13:41:13;;;;;;;6.13;2.80;;;;;;;;;;5035150;28;20067;-58
2021/05/26 13:43:39;;;;;;;5.20;3.00;;;;;;;;;;5051807;28;20091;-58
2021/05/26 13:46:06;;;;;;;5.37;2.80;;;;;;;;;;5052558;28;20021;-58
2021/05/26 13:48:33;;;;;;;5.03;2.93;;;;;;;;;;5052201;28;20037;-58
2021/05/26 13:51:00;;;;;;;4.27;3.07;;;;;;;;;;5052369;28;20099;-58
2021/05/26 13:53:27;;;;;;;5.47;3.50;;;;;;;;;;5052308;28;20029;-58
2021/05/26 13:55:54;;;;;;;6.80;4.43;;;;;;;;;;5052148;28;20021;-58
2021/05/26 13:58:21;;;;;;;6.73;4.23;;;;;;;;;;5052240;28;20021;-57
2021/05/26 14:00:47;;;;;;;7.70;4.53;;;;;;;;;;5051887;28;20017;-58
2021/05/26 14:03:14;;;;;;;7.03;3.70;;;;;;;;;;5052089;28;20022;-57
2021/05/26 14:05:41;;;;;;;6.53;3.27;;;;;;;;;;5052100;28;20024;-58
2021/05/26 14:08:08;;;;;;;6.17;3.30;;;;;;;;;;5052056;28;20043;-58
2021/05/26 14:10:35;;;;;;;4.70;2.70;;;;;;;;;;5052036;28;20052;-57
2021/05/26 14:13:03;;;;;;;9.57;3.13;;;;;;;;;;5052085;28;20044;-57
2021/05/26 14:15:31;;;;;;;4.20;2.30;;;;;;;;;;5052020;28;20025;-58
2021/05/26 14:18:01;;;;;;;4.90;2.67;;;;;;;;;;5051921;28;20075;-56
2021/05/26 14:20:28;;;;;;;5.03;2.70;;;;;;;;;;5053914;28;20430;-58
2021/05/26 14:22:56;;;;;;;6.13;2.63;;;;;;;;;;5055679;28;20487;-56
2021/05/26 14:25:23;;;;;;;10.00;2.47;;;;;;;;;;5055866;28;20029;-56
2021/05/26 14:27:50;;;;;;;6.83;2.97;;;;;;;;;;5055846;28;20392;-57
2021/05/26 14:30:17;;;;;;;4.47;2.30;;;;;;;;;;5055615;28;20039;-56
2021/05/26 14:32:44;;;;;;;6.07;2.97;;;;;;;;;;5055849;28;20091;-57
2021/05/26 14:35:14;;;;;;;7.27;3.50;;;;;;;;;;5055581;28;20021;-56
2021/05/26 14:37:46;;;;;;;6.53;2.80;;;;;;;;;;5055600;28;20049;-58
2021/05/26 14:40:14;;;;;;;4.47;2.33;;;;;;;;;;5055596;28;20071;-57
2021/05/26 14:42:40;;;;;;;5.60;2.40;;;;;;;;;;5055576;28;20021;-57
2021/05/26 14:45:09;;;;;;;7.40;2.97;;;;;;;;;;5055373;28;20558;-57
2021/05/26 14:47:36;;;;;;;6.80;3.17;;;;;;;;;;5037726;28;20033;-58
2021/05/26 14:50:03;;;;;;;5.37;3.00;;;;;;;;;;5055286;28;20017;-58
2021/05/26 14:52:30;;;;;;;8.57;3.13;;;;;;;;;;5055251;28;20036;-58